createdAt,value
2022-08-25T00:00:29.405Z,4.82
2022-08-25T00:03:36.021Z,4.70
2022-08-25T00:06:43.431Z,4.75
2022-08-25T00:09:45.675Z,4.63
2022-08-25T00:12:47.896Z,5.00
2022-08-25T00:15:51.512Z,5.00
2022-08-25T00:18:56.710Z,4.65
2022-08-25T00:21:59.371Z,5.53
2022-08-25T00:25:01.677Z,5.25
2022-08-25T00:28:08.243Z,4.85
2022-08-25T00:31:14.572Z,4.80
2022-08-25T00:34:18.559Z,5.22
2022-08-25T00:37:20.764Z,4.97
2022-08-25T00:40:25.856Z,5.53
2022-08-25T00:43:28.084Z,5.20
2022-08-25T00:46:35.277Z,5.40
2022-08-25T00:49:40.847Z,5.70
2022-08-25T00:52:45.668Z,5.40
2022-08-25T00:55:47.970Z,5.30
2022-08-25T00:58:50.841Z,4.80
2022-08-25T01:01:55.265Z,5.65
2022-08-25T01:04:58.290Z,5.25
2022-08-25T01:08:05.862Z,5.05
2022-08-25T01:11:10.316Z,4.68
2022-08-25T01:14:14.371Z,4.80
2022-08-25T01:17:18.038Z,4.75
2022-08-25T01:20:22.478Z,4.70
2022-08-25T01:23:32.427Z,5.07
2022-08-25T01:26:35.427Z,4.78
2022-08-25T01:29:37.846Z,4.75
2022-08-25T01:32:40.346Z,4.38
2022-08-25T01:35:43.630Z,5.15
2022-08-25T01:38:47.224Z,4.80
2022-08-25T01:41:55.319Z,4.88
2022-08-25T01:44:57.658Z,4.55
2022-08-25T01:47:59.997Z,4.55
2022-08-25T01:51:02.441Z,4.40
2022-08-25T01:54:06.215Z,4.55
2022-08-25T01:57:09.418Z,4.50
2022-08-25T02:00:14.224Z,4.13
2022-08-25T02:03:19.085Z,4.22
2022-08-25T02:06:28.819Z,4.63
2022-08-25T02:09:35.069Z,4.55
2022-08-25T02:12:37.617Z,3.88
2022-08-25T02:15:41.551Z,4.22
2022-08-25T02:18:45.461Z,4.53
2022-08-25T02:21:47.953Z,4.55
2022-08-25T02:24:51.596Z,4.78
2022-08-25T02:27:53.873Z,4.60
2022-08-25T02:31:01.377Z,4.43
2022-08-25T02:34:04.325Z,4.20
2022-08-25T02:37:06.599Z,4.28
2022-08-25T02:40:11.341Z,4.72
2022-08-25T02:43:13.692Z,4.35
2022-08-25T02:46:17.257Z,4.03
2022-08-25T02:49:19.566Z,4.72
2022-08-25T02:52:21.780Z,4.68
2022-08-25T02:55:25.492Z,4.63
2022-08-25T02:58:28.976Z,4.85
2022-08-25T03:01:32.702Z,4.13
2022-08-25T03:04:35.113Z,4.75
2022-08-25T03:07:38.446Z,4.90
2022-08-25T03:10:43.528Z,4.78
2022-08-25T03:13:46.262Z,4.80
2022-08-25T03:16:48.583Z,4.82
2022-08-25T03:19:51.539Z,5.10
2022-08-25T03:22:53.827Z,4.35
2022-08-25T03:26:15.992Z,4.72
2022-08-25T03:29:18.426Z,5.43
2022-08-25T03:32:20.891Z,5.20
2022-08-25T03:35:23.568Z,4.65
2022-08-25T03:38:27.235Z,4.63
2022-08-25T03:41:32.628Z,4.60
2022-08-25T03:44:34.862Z,4.38
2022-08-25T03:47:37.262Z,4.82
2022-08-25T03:50:44.524Z,5.38
2022-08-25T03:53:53.758Z,4.85
2022-08-25T03:56:57.318Z,4.60
2022-08-25T03:59:59.578Z,4.93
2022-08-25T04:03:01.798Z,4.97
2022-08-25T04:06:06.282Z,5.35
2022-08-25T04:09:08.644Z,4.70
2022-08-25T04:12:12.242Z,4.78
2022-08-25T04:15:15.182Z,5.38
2022-08-25T04:18:17.396Z,5.47
2022-08-25T04:21:20.367Z,5.78
2022-08-25T04:24:23.601Z,4.60
2022-08-25T04:27:27.287Z,5.50
2022-08-25T04:30:29.480Z,5.15
2022-08-25T04:33:32.419Z,5.35
2022-08-25T04:36:35.022Z,4.95
2022-08-25T04:39:37.562Z,5.10
2022-08-25T04:42:41.154Z,5.60
2022-08-25T04:45:43.524Z,5.22
2022-08-25T04:48:46.205Z,5.28
2022-08-25T04:51:48.411Z,5.72
2022-08-25T04:54:50.873Z,5.47
2022-08-25T04:57:54.566Z,6.68
2022-08-25T05:01:02.169Z,6.03
2022-08-25T05:04:06.893Z,5.32
2022-08-25T05:07:09.233Z,5.25
2022-08-25T05:10:11.556Z,5.78
2022-08-25T05:13:15.601Z,5.05
2022-08-25T05:16:19.389Z,5.45
2022-08-25T05:19:22.693Z,5.50
2022-08-25T05:22:24.913Z,5.90
2022-08-25T05:25:27.147Z,5.18
2022-08-25T05:28:30.754Z,6.10
2022-08-25T05:31:36.371Z,5.00
2022-08-25T05:34:40.609Z,5.35
2022-08-25T05:37:42.990Z,5.40
2022-08-25T05:40:45.483Z,5.57
2022-08-25T05:43:49.840Z,5.07
2022-08-25T05:46:52.515Z,5.63
2022-08-25T05:49:54.938Z,5.18
2022-08-25T05:52:58.220Z,4.88
2022-08-25T05:56:01.780Z,5.78
2022-08-25T05:59:09.262Z,5.10
2022-08-25T06:02:30.523Z,5.93
2022-08-25T06:05:32.926Z,5.15
2022-08-25T06:08:35.253Z,5.22
2022-08-25T06:11:40.215Z,5.05
2022-08-25T06:14:46.749Z,4.68
2022-08-25T06:17:49.786Z,6.60
2022-08-25T06:20:52.271Z,4.90
2022-08-25T06:23:54.526Z,4.68
2022-08-25T06:26:57.742Z,4.68
2022-08-25T06:30:08.059Z,4.38
2022-08-25T06:33:11.498Z,5.28
2022-08-25T06:36:14.294Z,4.50
2022-08-25T06:39:16.989Z,4.72
2022-08-25T06:42:19.593Z,4.03
2022-08-25T06:45:23.350Z,4.28
2022-08-25T06:48:25.641Z,4.45
2022-08-25T06:51:28.012Z,4.28
2022-08-25T06:54:30.223Z,4.25
2022-08-25T06:57:35.656Z,4.30
2022-08-25T07:00:39.384Z,4.10
2022-08-25T07:03:42.346Z,5.28
2022-08-25T07:06:44.930Z,3.90
2022-08-25T07:09:47.243Z,4.20
2022-08-25T07:12:51.919Z,4.55
2022-08-25T07:16:30.999Z,4.28
2022-08-25T07:19:26.988Z,4.30
2022-08-25T07:22:29.279Z,4.40
2022-08-25T07:25:31.573Z,3.63
2022-08-25T07:28:33.817Z,4.60
2022-08-25T07:31:39.846Z,4.32
2022-08-25T07:35:00.769Z,4.47
2022-08-25T07:38:05.509Z,4.05
2022-08-25T07:41:07.812Z,3.83
2022-08-25T07:44:11.880Z,3.72
2022-08-25T07:47:15.988Z,4.00
2022-08-25T07:50:18.690Z,4.20
2022-08-25T07:53:28.425Z,4.10
2022-08-25T07:56:33.680Z,4.13
2022-08-25T07:59:40.251Z,3.90
2022-08-25T08:02:44.220Z,4.10
2022-08-25T08:05:46.975Z,3.65
2022-08-25T08:08:54.949Z,3.67
2022-08-25T08:12:01.400Z,3.03
2022-08-25T08:15:04.362Z,3.90
2022-08-25T08:18:16.592Z,3.78
2022-08-25T08:21:22.486Z,4.00
2022-08-25T08:24:44.656Z,3.65
2022-08-25T08:27:47.103Z,3.40
2022-08-25T08:30:53.678Z,4.13
2022-08-25T08:33:58.165Z,3.83
2022-08-25T08:37:01.208Z,3.70
2022-08-25T08:40:05.016Z,3.60
2022-08-25T08:43:13.351Z,3.67
2022-08-25T08:46:21.705Z,3.67
2022-08-25T08:49:29.712Z,3.53
2022-08-25T08:52:40.697Z,4.22
2022-08-25T08:55:45.352Z,3.90
2022-08-25T08:58:52.551Z,3.97
2022-08-25T09:01:59.531Z,4.53
2022-08-25T09:05:08.687Z,3.58
2022-08-25T09:08:12.560Z,3.55
2022-08-25T09:11:24.022Z,3.22
2022-08-25T09:14:39.845Z,3.83
2022-08-25T09:17:56.366Z,3.38
2022-08-25T09:21:09.034Z,3.30
2022-08-25T09:24:26.480Z,3.63
2022-08-25T09:27:35.383Z,3.90
2022-08-25T09:30:43.938Z,3.33
2022-08-25T09:33:46.297Z,2.90
2022-08-25T09:36:52.954Z,3.70
2022-08-25T09:39:56.285Z,3.28
2022-08-25T09:43:02.970Z,3.50
2022-08-25T09:46:11.426Z,2.95
2022-08-25T09:49:16.605Z,2.83
2022-08-25T09:52:25.335Z,3.53
2022-08-25T09:55:32.622Z,3.50
2022-08-25T09:58:35.109Z,3.35
2022-08-25T10:01:47.968Z,3.28
2022-08-25T10:04:50.434Z,3.50
2022-08-25T10:07:56.262Z,3.65
2022-08-25T10:11:00.199Z,4.32
2022-08-25T10:14:05.130Z,3.00
2022-08-25T10:17:16.453Z,4.63
2022-08-25T10:20:21.432Z,3.08
2022-08-25T10:23:27.220Z,3.17
2022-08-25T10:26:37.193Z,4.20
2022-08-25T10:30:02.982Z,3.60
2022-08-25T10:33:12.830Z,3.55
2022-08-25T10:36:20.498Z,3.42
2022-08-25T10:39:40.671Z,3.40
2022-08-25T10:42:49.945Z,3.00
2022-08-25T10:45:57.825Z,3.78
2022-08-25T10:49:05.094Z,3.75
2022-08-25T10:52:12.839Z,3.38
2022-08-25T10:55:20.377Z,3.72
2022-08-25T10:58:30.779Z,3.75
2022-08-25T11:01:44.003Z,3.65
2022-08-25T11:04:49.375Z,3.40
2022-08-25T11:07:55.240Z,3.35
2022-08-25T11:11:02.801Z,4.03
2022-08-25T11:14:11.336Z,4.15
2022-08-25T11:17:16.902Z,4.05
2022-08-25T11:20:27.005Z,3.75
2022-08-25T11:23:35.863Z,3.85
2022-08-25T11:26:46.232Z,3.45
2022-08-25T11:29:56.797Z,3.75
2022-08-25T11:36:04.237Z,4.25
2022-08-25T11:39:16.572Z,3.60
2022-08-25T11:42:28.085Z,3.67
2022-08-25T11:45:54.151Z,4.47
2022-08-25T11:49:04.539Z,3.70
2022-08-25T11:52:51.566Z,3.95
2022-08-25T11:55:55.986Z,4.18
2022-08-25T11:58:59.733Z,3.95
2022-08-25T12:02:02.055Z,3.95
2022-08-25T12:05:07.228Z,4.25
2022-08-25T12:08:28.083Z,3.53
2022-08-25T12:11:54.675Z,4.82
2022-08-25T12:15:14.321Z,3.30
2022-08-25T12:18:44.215Z,3.55
2022-08-25T12:21:48.469Z,3.78
2022-08-25T12:24:53.023Z,4.93
2022-08-25T12:28:02.435Z,4.55
2022-08-25T12:31:44.545Z,4.22
2022-08-25T12:35:00.784Z,4.22
2022-08-25T12:38:06.244Z,4.05
2022-08-25T12:41:11.079Z,4.28
2022-08-25T12:44:20.449Z,3.78
2022-08-25T12:47:31.828Z,4.50
2022-08-25T12:50:40.931Z,3.63
2022-08-25T12:53:46.335Z,4.22
2022-08-25T12:56:52.794Z,3.55
2022-08-25T12:59:58.657Z,5.28
2022-08-25T13:03:29.085Z,4.15
2022-08-25T13:06:41.937Z,3.85
2022-08-25T13:10:15.862Z,4.20
2022-08-25T13:13:24.363Z,3.60
2022-08-25T13:16:29.926Z,3.47
2022-08-25T13:19:35.033Z,3.78
2022-08-25T13:22:37.752Z,3.13
2022-08-25T13:25:47.937Z,3.75
2022-08-25T13:28:54.615Z,3.08
2022-08-25T13:31:59.598Z,3.05
2022-08-25T13:35:17.570Z,2.90
2022-08-25T13:38:22.262Z,2.88
2022-08-25T13:41:29.432Z,3.50
2022-08-25T13:44:35.294Z,3.28
2022-08-25T13:47:45.449Z,3.20
2022-08-25T13:50:52.037Z,3.33
2022-08-25T13:54:00.094Z,3.30
2022-08-25T13:57:08.417Z,2.53
2022-08-25T14:00:11.897Z,2.92
2022-08-25T14:03:31.317Z,3.20
2022-08-25T14:06:37.213Z,3.20
2022-08-25T14:09:41.358Z,3.10
2022-08-25T14:12:46.834Z,3.00
2022-08-25T14:15:49.331Z,2.85
2022-08-25T14:18:53.190Z,3.85
2022-08-25T14:21:59.729Z,3.08
2022-08-25T14:25:02.018Z,3.15
2022-08-25T14:28:08.097Z,2.92
2022-08-25T14:31:14.372Z,2.40
2022-08-25T14:34:20.171Z,2.58
2022-08-25T14:37:25.310Z,2.50
2022-08-25T14:40:32.071Z,3.05
2022-08-25T14:43:37.059Z,2.75
2022-08-25T14:46:43.898Z,3.20
2022-08-25T14:49:47.957Z,3.17
2022-08-25T14:52:52.391Z,2.83
2022-08-25T14:55:58.715Z,3.33
2022-08-25T14:59:04.914Z,3.10
2022-08-25T15:02:08.526Z,3.28
2022-08-25T15:05:20.646Z,2.72
2022-08-25T15:08:43.513Z,2.55
2022-08-25T15:11:50.558Z,2.83
2022-08-25T15:14:53.216Z,3.17
2022-08-25T15:17:58.120Z,2.95
2022-08-25T15:21:02.955Z,2.38
2022-08-25T15:24:09.324Z,2.70
2022-08-25T15:27:14.528Z,2.13
2022-08-25T15:30:17.175Z,2.38
2022-08-25T15:33:22.654Z,2.63
2022-08-25T15:36:26.169Z,2.22
2022-08-25T15:39:29.982Z,2.60
2022-08-25T15:42:32.271Z,2.50
2022-08-25T15:45:36.117Z,3.00
2022-08-25T15:48:38.700Z,2.53
2022-08-25T15:51:42.006Z,2.33
2022-08-25T15:54:46.224Z,2.70
2022-08-25T15:57:50.113Z,2.30
2022-08-25T16:00:56.267Z,2.70
2022-08-25T16:03:59.137Z,1.98
2022-08-25T16:07:01.581Z,2.40
2022-08-25T16:10:06.171Z,2.10
2022-08-25T16:13:09.857Z,2.10
2022-08-25T16:16:12.268Z,1.75
2022-08-25T16:19:15.002Z,2.35
2022-08-25T16:22:17.806Z,2.08
2022-08-25T16:25:21.968Z,2.55
2022-08-25T16:28:24.385Z,2.15
2022-08-25T16:31:27.379Z,2.10
2022-08-25T16:34:30.859Z,2.40
2022-08-25T16:37:35.665Z,2.15
2022-08-25T16:40:40.331Z,2.28
2022-08-25T16:43:45.347Z,2.15
2022-08-25T16:46:48.238Z,2.28
2022-08-25T16:49:50.794Z,3.65
2022-08-25T16:53:12.709Z,2.30
2022-08-25T16:56:16.368Z,2.55
2022-08-25T16:59:19.097Z,2.45
2022-08-25T17:02:21.641Z,2.38
2022-08-25T17:05:24.124Z,2.25
2022-08-25T17:08:30.394Z,2.33
2022-08-25T17:11:39.722Z,2.10
2022-08-25T17:14:41.994Z,2.45
2022-08-25T17:17:45.016Z,2.25
2022-08-25T17:20:48.555Z,2.50
2022-08-25T17:23:54.525Z,4.13
2022-08-25T17:26:58.350Z,2.80
2022-08-25T17:30:00.846Z,2.28
2022-08-25T17:33:03.958Z,2.50
2022-08-25T17:36:07.267Z,2.58
2022-08-25T17:39:11.995Z,2.55
2022-08-25T17:42:15.891Z,2.20
2022-08-25T17:45:18.364Z,2.53
2022-08-25T17:48:20.651Z,2.88
2022-08-25T17:51:23.709Z,2.15
2022-08-25T17:54:26.082Z,2.95
2022-08-25T17:57:31.466Z,2.50
2022-08-25T18:00:41.189Z,2.63
2022-08-25T18:03:46.306Z,2.67
2022-08-25T18:06:48.751Z,2.33
2022-08-25T18:09:51.071Z,2.42
2022-08-25T18:12:54.994Z,2.70
2022-08-25T18:15:57.658Z,2.65
2022-08-25T18:18:59.949Z,2.97
2022-08-25T18:22:06.085Z,3.22
2022-08-25T18:25:11.675Z,3.00
2022-08-25T18:28:15.355Z,3.25
2022-08-25T18:31:19.870Z,5.30
2022-08-25T18:34:23.932Z,4.18
2022-08-25T18:37:44.851Z,4.28
2022-08-25T18:40:47.197Z,4.57
2022-08-25T18:43:52.731Z,4.05
2022-08-25T18:46:55.112Z,5.72
2022-08-25T18:50:00.521Z,7.20
2022-08-25T18:53:06.403Z,6.55
2022-08-25T18:56:10.514Z,9.10
2022-08-25T18:59:14.143Z,7.03
2022-08-25T19:02:16.562Z,6.07
2022-08-25T19:05:22.407Z,7.28
2022-08-25T19:08:25.231Z,7.97
2022-08-25T19:11:29.315Z,9.15
2022-08-25T19:14:33.661Z,7.07
2022-08-25T19:17:37.310Z,7.05
2022-08-25T19:20:40.988Z,5.47
2022-08-25T19:23:43.305Z,6.00
2022-08-25T19:26:46.205Z,4.97
2022-08-25T19:29:49.910Z,4.50
2022-08-25T19:32:52.482Z,4.75
2022-08-25T19:35:54.893Z,4.88
2022-08-25T19:39:00.170Z,6.93
2022-08-25T19:42:03.123Z,4.85
2022-08-25T19:45:09.155Z,4.05
2022-08-25T19:48:14.779Z,4.60
2022-08-25T19:51:19.350Z,3.85
2022-08-25T19:54:26.257Z,3.90
2022-08-25T19:57:42.640Z,5.25
2022-08-25T20:00:50.759Z,6.28
2022-08-25T20:03:53.554Z,14.80
2022-08-25T20:06:59.373Z,6.53
2022-08-25T20:10:02.436Z,11.30
2022-08-25T20:13:05.618Z,9.32
2022-08-25T20:16:10.288Z,6.30
2022-08-25T20:19:12.899Z,7.68
2022-08-25T20:22:19.204Z,4.75
2022-08-25T20:25:24.384Z,4.97
2022-08-25T20:28:26.861Z,5.25
2022-08-25T20:31:31.966Z,6.43
2022-08-25T20:34:35.025Z,5.03
2022-08-25T20:37:37.852Z,5.00
2022-08-25T20:40:41.890Z,4.70
2022-08-25T20:43:45.722Z,4.82
2022-08-25T20:46:50.047Z,9.52
2022-08-25T20:49:54.078Z,7.00
2022-08-25T20:52:57.528Z,5.95
2022-08-25T20:55:59.774Z,6.03
2022-08-25T20:59:04.786Z,6.50
2022-08-25T21:02:15.038Z,6.13
2022-08-25T21:05:17.734Z,6.28
2022-08-25T21:08:20.102Z,7.22
2022-08-25T21:11:26.988Z,9.50
2022-08-25T21:14:29.580Z,6.75
2022-08-25T21:17:33.396Z,9.52
2022-08-25T21:20:35.696Z,8.27
2022-08-25T21:23:38.415Z,6.55
2022-08-25T21:26:48.402Z,5.65
2022-08-25T21:29:54.866Z,6.88
2022-08-25T21:32:59.141Z,6.03
2022-08-25T21:36:01.600Z,6.07
2022-08-25T21:39:05.950Z,11.23
2022-08-25T21:45:12.334Z,9.93
2022-08-25T21:48:16.850Z,7.85
2022-08-25T21:51:21.096Z,8.23
2022-08-25T21:54:24.371Z,12.45
2022-08-25T21:57:26.710Z,7.43
2022-08-25T22:00:29.150Z,9.48
2022-08-25T22:03:32.805Z,8.85
2022-08-25T22:06:39.454Z,7.70
2022-08-25T22:09:41.877Z,12.60
2022-08-25T22:12:45.042Z,9.40
2022-08-25T22:15:47.332Z,7.63
2022-08-25T22:18:56.428Z,7.90
2022-08-25T22:21:58.716Z,7.78
2022-08-25T22:25:01.181Z,9.20
2022-08-25T22:28:04.660Z,8.43
2022-08-25T22:31:07.955Z,7.82
2022-08-25T22:34:11.758Z,6.60
2022-08-25T22:37:17.580Z,6.78
2022-08-25T22:40:20.036Z,6.45
2022-08-25T22:43:22.602Z,6.95
2022-08-25T22:46:27.910Z,6.70
2022-08-25T22:49:31.730Z,7.65
2022-08-25T22:52:34.663Z,8.00
2022-08-25T22:55:42.378Z,8.27
2022-08-25T22:58:51.482Z,7.65
2022-08-25T23:01:55.070Z,7.03
2022-08-25T23:05:00.825Z,7.15
2022-08-25T23:08:03.815Z,6.43
2022-08-25T23:11:09.800Z,6.22
2022-08-25T23:14:12.325Z,7.05
2022-08-25T23:17:14.856Z,6.18
2022-08-25T23:20:37.210Z,6.75
2022-08-25T23:23:48.011Z,7.05
2022-08-25T23:26:51.391Z,7.00
2022-08-25T23:29:53.685Z,6.88
2022-08-25T23:32:56.055Z,7.03
2022-08-25T23:36:01.386Z,6.43
2022-08-25T23:39:04.546Z,5.95
2022-08-25T23:42:08.350Z,6.43
2022-08-25T23:45:11.036Z,6.55
2022-08-25T23:48:14.466Z,6.35
2022-08-25T23:51:23.946Z,6.55
2022-08-25T23:54:31.451Z,5.68
2022-08-25T23:57:33.994Z,6.00
